createdAt,value
2018-03-02T00:01:24.358Z,57.30
2018-03-02T00:03:50.444Z,52.67
2018-03-02T00:06:17.284Z,51.92
2018-03-02T00:08:44.179Z,56.55
2018-03-02T00:11:10.260Z,61.47
2018-03-02T00:13:36.396Z,51.97
2018-03-02T00:16:02.506Z,67.20
2018-03-02T00:18:28.595Z,52.08
2018-03-02T00:20:54.673Z,59.63
2018-03-02T00:23:20.792Z,62.17
2018-03-02T00:25:46.868Z,55.10
2018-03-02T00:28:12.936Z,56.95
2018-03-02T00:30:39.020Z,61.50
2018-03-02T00:33:05.088Z,63.00
2018-03-02T00:35:31.167Z,51.95
2018-03-02T00:37:57.973Z,53.55
2018-03-02T00:40:24.100Z,48.78
2018-03-02T00:42:50.160Z,53.47
2018-03-02T00:45:16.235Z,63.95
2018-03-02T00:47:43.048Z,56.67
2018-03-02T00:50:09.116Z,51.28
2018-03-02T00:52:35.219Z,55.20
2018-03-02T00:55:01.292Z,53.67
2018-03-02T00:57:27.365Z,55.92
2018-03-02T00:59:53.427Z,52.62
2018-03-02T01:02:19.522Z,57.17
2018-03-02T01:04:46.391Z,49.30
2018-03-02T01:07:12.479Z,60.67
2018-03-02T01:09:38.553Z,62.17
2018-03-02T01:12:05.385Z,55.00
2018-03-02T01:14:31.449Z,48.47
2018-03-02T01:16:57.523Z,57.53
2018-03-02T01:19:23.595Z,58.92
2018-03-02T01:21:49.679Z,45.83
2018-03-02T01:24:15.820Z,59.50
2018-03-02T01:26:41.928Z,56.58
2018-03-02T01:29:08.769Z,49.22
2018-03-02T01:31:34.853Z,55.38
2018-03-02T01:34:01.026Z,58.03
2018-03-02T01:36:27.159Z,45.45
2018-03-02T01:38:53.291Z,52.42
2018-03-02T01:41:19.357Z,45.80
2018-03-02T01:43:45.446Z,47.00
2018-03-02T01:46:11.558Z,58.65
2018-03-02T01:48:38.379Z,59.15
2018-03-02T01:51:04.564Z,42.65
2018-03-02T01:53:30.663Z,51.03
2018-03-02T01:55:57.492Z,47.05
2018-03-02T01:58:23.571Z,57.40
2018-03-02T02:00:50.412Z,55.50
2018-03-02T02:03:16.497Z,56.20
2018-03-02T02:05:42.582Z,55.70
2018-03-02T02:08:08.784Z,60.45
2018-03-02T02:10:34.880Z,53.42
2018-03-02T02:13:01.715Z,53.47
2018-03-02T02:15:27.813Z,66.15
2018-03-02T02:17:53.896Z,71.65
2018-03-02T02:20:20.095Z,61.13
2018-03-02T02:22:46.171Z,50.53
2018-03-02T02:25:12.263Z,53.00
2018-03-02T02:27:38.352Z,49.42
2018-03-02T02:30:04.449Z,50.33
2018-03-02T02:32:30.528Z,68.28
2018-03-02T02:34:56.628Z,67.75
2018-03-02T02:37:22.707Z,55.15
2018-03-02T02:39:48.812Z,62.50
2018-03-02T02:42:14.899Z,49.95
2018-03-02T02:44:41.735Z,62.40
2018-03-02T02:47:07.822Z,53.90
2018-03-02T02:49:33.894Z,49.28
2018-03-02T02:51:59.979Z,50.08
2018-03-02T02:54:26.053Z,58.35
2018-03-02T02:56:52.156Z,54.67
2018-03-02T02:59:18.344Z,55.97
2018-03-02T03:01:44.445Z,67.78
2018-03-02T03:04:10.541Z,54.17
2018-03-02T03:06:36.624Z,59.78
2018-03-02T03:09:02.715Z,71.87
2018-03-02T03:11:28.911Z,58.83
2018-03-02T03:13:54.984Z,60.03
2018-03-02T03:16:21.133Z,53.17
2018-03-02T03:18:47.204Z,52.95
2018-03-02T03:21:13.295Z,56.88
2018-03-02T03:23:39.352Z,53.63
2018-03-02T03:26:05.458Z,60.53
2018-03-02T03:28:32.287Z,55.55
2018-03-02T03:30:58.355Z,58.00
2018-03-02T03:33:24.460Z,57.03
2018-03-02T03:35:50.547Z,66.18
2018-03-02T03:38:16.631Z,63.50
2018-03-02T03:40:42.707Z,57.92
2018-03-02T03:43:08.794Z,51.35
2018-03-02T03:45:34.859Z,50.53
2018-03-02T03:48:00.945Z,57.78
2018-03-02T03:50:27.798Z,63.33
2018-03-02T03:52:53.867Z,68.20
2018-03-02T03:55:19.924Z,65.10
2018-03-02T03:57:46.007Z,65.25
2018-03-02T04:00:12.075Z,65.50
2018-03-02T04:02:38.163Z,63.35
2018-03-02T04:05:04.267Z,52.72
2018-03-02T04:07:30.376Z,52.28
2018-03-02T04:09:57.406Z,63.50
2018-03-02T04:12:23.519Z,63.67
2018-03-02T04:14:49.606Z,53.38
2018-03-02T04:17:16.419Z,64.12
2018-03-02T04:19:42.519Z,58.87
2018-03-02T04:22:08.595Z,62.00
2018-03-02T04:24:34.688Z,54.78
2018-03-02T04:27:01.612Z,51.72
2018-03-02T04:29:27.611Z,63.53
2018-03-02T04:31:53.711Z,49.22
2018-03-02T04:34:20.548Z,61.47
2018-03-02T04:36:46.625Z,57.97
2018-03-02T04:39:12.794Z,66.82
2018-03-02T04:41:38.877Z,80.40
2018-03-02T04:44:05.723Z,124.65
2018-03-02T04:46:31.811Z,74.75
2018-03-02T04:48:57.911Z,66.93
2018-03-02T04:51:24.739Z,68.00
2018-03-02T04:53:50.847Z,58.70
2018-03-02T04:56:16.923Z,68.87
2018-03-02T04:58:43.013Z,61.10
2018-03-02T05:01:09.112Z,66.68
2018-03-02T05:03:35.942Z,59.08
2018-03-02T05:06:02.067Z,56.70
2018-03-02T05:08:28.894Z,56.58
2018-03-02T05:10:55.008Z,61.17
2018-03-02T05:13:21.840Z,52.28
2018-03-02T05:15:48.040Z,52.22
2018-03-02T05:18:14.119Z,60.55
2018-03-02T05:20:40.216Z,59.28
2018-03-02T05:23:06.351Z,59.55
2018-03-02T05:25:32.443Z,59.20
2018-03-02T05:27:58.611Z,60.10
2018-03-02T05:30:24.731Z,62.80
2018-03-02T05:32:51.607Z,53.65
2018-03-02T05:35:17.703Z,68.12
2018-03-02T05:37:43.784Z,52.42
2018-03-02T05:40:09.891Z,45.12
2018-03-02T05:42:35.971Z,60.95
2018-03-02T05:45:02.051Z,55.47
2018-03-02T05:47:28.141Z,54.20
2018-03-02T05:49:54.222Z,67.20
2018-03-02T05:52:20.318Z,75.65
2018-03-02T05:54:46.403Z,60.20
2018-03-02T05:57:12.499Z,61.95
2018-03-02T05:59:38.584Z,52.08
2018-03-02T06:02:04.693Z,69.50
2018-03-02T06:04:30.783Z,58.53
2018-03-02T06:06:57.689Z,67.62
2018-03-02T06:09:23.774Z,71.68
2018-03-02T06:11:50.660Z,79.37
2018-03-02T06:14:16.743Z,61.42
2018-03-02T06:16:42.838Z,73.45
2018-03-02T06:19:08.966Z,68.37
2018-03-02T06:21:35.076Z,53.13
2018-03-02T06:24:01.911Z,59.58
2018-03-02T06:26:27.994Z,65.80
2018-03-02T06:28:54.098Z,63.65
2018-03-02T06:31:20.183Z,62.08
2018-03-02T06:33:46.283Z,62.67
2018-03-02T06:36:12.359Z,73.68
2018-03-02T06:38:38.448Z,68.25
2018-03-02T06:41:04.523Z,66.70
2018-03-02T06:43:30.603Z,70.68
2018-03-02T06:45:56.686Z,55.17
2018-03-02T06:48:22.779Z,70.75
2018-03-02T06:50:48.850Z,71.97
2018-03-02T06:53:15.683Z,57.15
2018-03-02T06:55:41.761Z,60.45
2018-03-02T06:58:08.250Z,66.72
2018-03-02T07:00:34.335Z,66.05
2018-03-02T07:03:01.171Z,66.57
2018-03-02T07:05:27.273Z,68.22
2018-03-02T07:07:53.367Z,67.25
2018-03-02T07:10:20.195Z,58.58
2018-03-02T07:12:46.382Z,55.67
2018-03-02T07:15:12.476Z,61.17
2018-03-02T07:17:38.631Z,62.72
2018-03-02T07:20:05.473Z,69.75
2018-03-02T07:22:31.559Z,60.60
2018-03-02T07:24:57.650Z,70.72
2018-03-02T07:27:23.732Z,65.35
2018-03-02T07:29:49.827Z,62.65
2018-03-02T07:32:15.947Z,63.85
2018-03-02T07:34:42.030Z,63.15
2018-03-02T07:37:08.112Z,72.35
2018-03-02T07:39:34.237Z,74.97
2018-03-02T07:42:00.322Z,59.88
2018-03-02T07:44:26.411Z,58.60
2018-03-02T07:46:52.499Z,63.95
2018-03-02T07:49:19.342Z,55.60
2018-03-02T07:51:45.423Z,69.03
2018-03-02T07:54:11.567Z,67.25
2018-03-02T07:56:37.675Z,63.50
2018-03-02T07:59:04.511Z,52.85
2018-03-02T08:01:30.607Z,57.15
2018-03-02T08:03:56.691Z,55.50
2018-03-02T08:06:22.795Z,57.90
2018-03-02T08:08:48.884Z,62.58
2018-03-02T08:11:15.717Z,62.10
2018-03-02T08:13:41.921Z,64.68
2018-03-02T08:16:08.053Z,61.80
2018-03-02T08:18:34.111Z,58.38
2018-03-02T08:21:00.200Z,60.83
2018-03-02T08:23:27.023Z,68.68
2018-03-02T08:25:53.116Z,62.92
2018-03-02T08:28:19.191Z,58.53
2018-03-02T08:30:45.283Z,56.35
2018-03-02T08:33:11.396Z,66.60
2018-03-02T08:35:38.219Z,70.95
2018-03-02T08:38:04.327Z,62.08
2018-03-02T08:40:30.421Z,58.90
2018-03-02T08:42:56.551Z,71.25
2018-03-02T08:45:22.616Z,62.30
2018-03-02T08:47:48.723Z,64.18
2018-03-02T08:50:14.807Z,69.15
2018-03-02T08:52:40.904Z,63.55
2018-03-02T08:55:06.987Z,64.05
2018-03-02T08:57:33.080Z,63.10
2018-03-02T08:59:59.172Z,70.03
2018-03-02T09:02:25.271Z,65.05
2018-03-02T09:04:52.137Z,61.50
2018-03-02T09:07:18.952Z,54.08
2018-03-02T09:09:45.058Z,74.05
2018-03-02T09:12:11.131Z,71.95
2018-03-02T09:14:37.207Z,63.90
2018-03-02T09:17:03.356Z,60.95
2018-03-02T09:19:29.432Z,57.58
2018-03-02T09:21:55.523Z,55.65
2018-03-02T09:24:21.598Z,59.75
2018-03-02T09:26:47.672Z,67.78
2018-03-02T09:29:13.751Z,65.55
2018-03-02T09:31:39.819Z,59.50
2018-03-02T09:34:05.927Z,56.70
2018-03-02T09:36:32.008Z,61.63
2018-03-02T09:38:58.090Z,60.50
2018-03-02T09:41:24.178Z,63.65
2018-03-02T09:43:50.283Z,64.12
2018-03-02T09:46:16.409Z,66.60
2018-03-02T09:48:42.456Z,57.13
2018-03-02T09:51:08.530Z,60.58
2018-03-02T09:53:34.619Z,68.10
2018-03-02T09:56:00.831Z,56.47
2018-03-02T09:58:26.947Z,49.70
2018-03-02T10:00:53.039Z,60.38
2018-03-02T10:03:19.176Z,52.17
2018-03-02T10:05:45.279Z,53.78
2018-03-02T10:08:11.354Z,66.07
2018-03-02T10:10:37.461Z,60.35
2018-03-02T10:13:04.294Z,60.40
2018-03-02T10:15:30.392Z,69.20
2018-03-02T10:17:56.482Z,60.97
2018-03-02T10:20:22.587Z,61.42
2018-03-02T10:22:48.677Z,62.90
2018-03-02T10:25:15.510Z,64.80
2018-03-02T10:27:41.615Z,58.15
2018-03-02T10:30:07.710Z,64.20
2018-03-02T10:32:34.543Z,53.97
2018-03-02T10:35:00.660Z,51.75
2018-03-02T10:37:26.752Z,69.50
2018-03-02T10:39:52.860Z,61.67
2018-03-02T10:42:18.943Z,54.20
2018-03-02T10:44:45.023Z,57.45
2018-03-02T10:47:11.110Z,209.20
2018-03-02T10:49:37.268Z,256.80
2018-03-02T10:52:03.354Z,133.25
2018-03-02T10:54:29.448Z,70.62
2018-03-02T10:56:55.571Z,61.22
2018-03-02T10:59:21.718Z,53.13
2018-03-02T11:01:53.864Z,57.20
2018-03-02T11:04:19.976Z,61.13
2018-03-02T11:06:46.070Z,57.92
2018-03-02T11:09:12.180Z,58.78
2018-03-02T11:11:39.015Z,63.78
2018-03-02T11:14:05.103Z,61.50
2018-03-02T11:16:31.186Z,74.70
2018-03-02T11:18:57.276Z,58.85
2018-03-02T11:21:23.380Z,66.05
2018-03-02T11:23:49.519Z,72.32
2018-03-02T11:26:16.350Z,58.00
2018-03-02T11:28:42.452Z,66.75
2018-03-02T11:31:08.551Z,63.87
2018-03-02T11:33:35.376Z,57.75
2018-03-02T11:36:01.592Z,65.80
2018-03-02T11:38:27.703Z,59.13
2018-03-02T11:40:53.868Z,68.15
2018-03-02T11:43:20.035Z,55.60
2018-03-02T11:45:46.156Z,68.90
2018-03-02T11:48:12.300Z,64.57
2018-03-02T11:50:38.399Z,79.87
2018-03-02T11:53:04.506Z,66.78
2018-03-02T11:55:30.625Z,67.32
2018-03-02T11:57:56.825Z,65.37
2018-03-02T12:00:22.945Z,63.17
2018-03-02T12:02:49.783Z,75.00
2018-03-02T12:05:15.900Z,61.80
2018-03-02T12:07:41.960Z,65.68
2018-03-02T12:10:08.788Z,62.20
2018-03-02T12:12:34.883Z,59.97
2018-03-02T12:15:00.973Z,71.25
2018-03-02T12:17:27.124Z,59.35
2018-03-02T12:19:53.222Z,67.03
2018-03-02T12:22:19.359Z,63.25
2018-03-02T12:24:45.434Z,61.15
2018-03-02T12:27:12.258Z,69.93
2018-03-02T12:29:38.404Z,58.00
2018-03-02T12:32:04.475Z,64.22
2018-03-02T12:34:31.307Z,59.80
2018-03-02T12:36:58.138Z,65.10
2018-03-02T12:39:24.217Z,58.47
2018-03-02T12:41:50.318Z,64.22
2018-03-02T12:44:16.384Z,64.40
2018-03-02T12:46:42.472Z,63.10
2018-03-02T12:49:08.616Z,60.83
2018-03-02T12:51:34.696Z,57.92
2018-03-02T12:54:00.770Z,72.53
2018-03-02T12:56:27.607Z,61.75
2018-03-02T12:58:54.446Z,62.00
2018-03-02T13:01:20.576Z,63.70
2018-03-02T13:03:46.711Z,58.60
2018-03-02T13:06:12.828Z,58.22
2018-03-02T13:08:38.970Z,59.65
2018-03-02T13:11:05.113Z,57.15
2018-03-02T13:13:31.234Z,56.47
2018-03-02T13:15:57.371Z,69.75
2018-03-02T13:18:35.718Z,61.47
2018-03-02T13:21:01.931Z,70.47
2018-03-02T13:23:27.998Z,59.50
2018-03-02T13:25:54.131Z,62.92
2018-03-02T13:28:32.560Z,62.50
2018-03-02T13:30:58.673Z,61.90
2018-03-02T13:33:36.967Z,57.88
2018-03-02T13:36:03.859Z,65.50
2018-03-02T13:38:29.938Z,55.90
2018-03-02T13:41:08.322Z,59.35
2018-03-02T13:43:34.413Z,64.53
2018-03-02T13:46:00.607Z,64.30
2018-03-02T13:48:39.094Z,65.32
2018-03-02T13:51:05.207Z,73.40
2018-03-02T13:53:31.295Z,61.25
2018-03-02T13:55:57.372Z,59.80
2018-03-02T13:58:23.509Z,62.90
2018-03-02T14:00:50.331Z,72.62
2018-03-02T14:03:28.771Z,65.45
2018-03-02T14:05:54.865Z,74.72
2018-03-02T14:08:21.092Z,69.05
2018-03-02T14:10:47.183Z,81.05
2018-03-02T14:13:13.275Z,74.80
2018-03-02T14:15:39.359Z,65.50
2018-03-02T14:18:05.506Z,64.40
2018-03-02T14:20:31.627Z,59.78
2018-03-02T14:22:58.551Z,67.22
2018-03-02T14:25:24.644Z,63.83
2018-03-02T14:27:50.767Z,73.35
2018-03-02T14:30:16.927Z,76.32
2018-03-02T14:32:43.019Z,67.82
2018-03-02T14:35:09.850Z,63.55
2018-03-02T14:37:35.956Z,65.28
2018-03-02T14:40:02.057Z,68.80
2018-03-02T14:42:28.888Z,73.35
2018-03-02T14:44:54.999Z,87.30
2018-03-02T14:47:21.867Z,93.32
2018-03-02T14:49:47.959Z,65.70
2018-03-02T14:52:14.046Z,84.50
2018-03-02T14:54:40.263Z,67.95
2018-03-02T14:57:07.079Z,69.15
2018-03-02T14:59:33.182Z,70.37
2018-03-02T15:01:59.256Z,65.87
2018-03-02T15:04:25.359Z,66.55
2018-03-02T15:06:51.448Z,58.97
2018-03-02T15:09:17.644Z,61.95
2018-03-02T15:11:44.511Z,65.22
2018-03-02T15:14:10.684Z,72.78
2018-03-02T15:16:36.771Z,67.50
2018-03-02T15:19:02.895Z,70.90
2018-03-02T15:21:29.047Z,66.85
2018-03-02T15:23:55.151Z,68.87
2018-03-02T15:26:21.295Z,70.15
2018-03-02T15:28:47.414Z,70.15
2018-03-02T15:31:13.495Z,69.87
2018-03-02T15:33:39.580Z,71.47
2018-03-02T15:36:05.691Z,68.03
2018-03-02T15:38:32.511Z,59.15
2018-03-02T15:40:58.624Z,69.93
2018-03-02T15:43:24.708Z,65.65
2018-03-02T15:45:50.809Z,85.60
2018-03-02T15:48:16.903Z,83.85
2018-03-02T15:50:43.735Z,72.12
2018-03-02T15:53:09.919Z,76.60
2018-03-02T15:55:36.012Z,76.78
2018-03-02T15:58:02.094Z,80.32
2018-03-02T16:00:28.183Z,74.28
2018-03-02T16:02:54.279Z,76.90
2018-03-02T16:05:20.384Z,71.97
2018-03-02T16:07:47.206Z,70.25
2018-03-02T16:10:13.285Z,78.82
2018-03-02T16:12:40.141Z,84.82
2018-03-02T16:15:07.011Z,115.45
2018-03-02T16:17:33.090Z,79.25
2018-03-02T16:20:00.003Z,98.12
2018-03-02T16:22:26.094Z,132.20
2018-03-02T16:24:52.155Z,92.18
2018-03-02T16:27:19.100Z,114.20
2018-03-02T16:29:45.190Z,147.07
2018-03-02T16:32:11.335Z,81.07
2018-03-02T16:34:37.419Z,93.78
2018-03-02T16:37:03.590Z,253.82
2018-03-02T16:39:29.691Z,87.40
2018-03-02T16:41:55.874Z,112.00
2018-03-02T16:44:21.960Z,92.18
2018-03-02T16:46:48.040Z,91.18
2018-03-02T16:49:14.115Z,211.73
2018-03-02T16:51:40.190Z,166.45
2018-03-02T16:54:07.139Z,192.27
2018-03-02T16:56:33.249Z,214.35
2018-03-02T16:58:59.372Z,82.62
2018-03-02T17:01:25.496Z,69.50
2018-03-02T17:03:51.631Z,67.35
2018-03-02T17:06:17.731Z,73.43
2018-03-02T17:08:43.852Z,66.65
2018-03-02T17:11:09.958Z,75.12
2018-03-02T17:13:36.111Z,84.75
2018-03-02T17:16:02.207Z,92.53
2018-03-02T17:18:29.044Z,82.00
2018-03-02T17:20:55.125Z,83.68
2018-03-02T17:23:21.246Z,105.95
2018-03-02T17:25:47.323Z,78.85
2018-03-02T17:28:13.427Z,70.80
2018-03-02T17:30:39.527Z,73.12
2018-03-02T17:33:05.744Z,84.15
2018-03-02T17:35:31.848Z,78.03
2018-03-02T17:37:57.973Z,83.18
2018-03-02T17:40:24.152Z,84.37
2018-03-02T17:42:50.984Z,97.45
2018-03-02T17:45:17.203Z,73.75
2018-03-02T17:47:43.283Z,83.75
2018-03-02T17:50:09.410Z,75.00
2018-03-02T17:52:35.552Z,82.37
2018-03-02T17:55:01.661Z,79.65
2018-03-02T17:57:28.601Z,79.10
2018-03-02T17:59:54.887Z,86.35
2018-03-02T18:02:21.088Z,68.03
2018-03-02T18:04:47.176Z,83.82
2018-03-02T18:07:13.347Z,77.87
2018-03-02T18:09:39.547Z,74.30
2018-03-02T18:12:05.725Z,73.03
2018-03-02T18:14:31.826Z,86.85
2018-03-02T18:16:57.959Z,81.82
2018-03-02T18:19:24.135Z,79.62
2018-03-02T18:21:50.267Z,69.37
2018-03-02T18:24:16.440Z,81.68
2018-03-02T18:26:42.664Z,96.57
2018-03-02T18:29:08.787Z,87.60
2018-03-02T18:31:34.927Z,74.05
2018-03-02T18:34:01.052Z,93.10
2018-03-02T18:36:27.182Z,89.97
2018-03-02T18:38:53.320Z,75.15
2018-03-02T18:41:19.479Z,94.85
2018-03-02T18:43:45.588Z,83.03
2018-03-02T18:46:11.679Z,77.37
2018-03-02T18:48:37.859Z,85.12
2018-03-02T18:51:03.958Z,82.80
2018-03-02T18:53:30.028Z,76.45
2018-03-02T18:55:56.195Z,81.70
2018-03-02T18:58:22.323Z,74.93
2018-03-02T19:00:48.471Z,79.32
2018-03-02T19:03:14.592Z,84.53
2018-03-02T19:05:40.688Z,75.25
2018-03-02T19:08:06.787Z,83.65
2018-03-02T19:10:32.938Z,76.70
2018-03-02T19:12:59.024Z,99.82
2018-03-02T19:15:25.911Z,83.70
2018-03-02T19:17:52.063Z,92.78
2018-03-02T19:20:18.206Z,78.03
2018-03-02T19:22:44.299Z,89.97
2018-03-02T19:25:11.152Z,78.70
2018-03-02T19:27:37.970Z,75.85
2018-03-02T19:30:04.169Z,74.12
2018-03-02T19:32:30.321Z,85.45
2018-03-02T19:34:56.443Z,85.62
2018-03-02T19:37:22.530Z,81.10
2018-03-02T19:39:48.756Z,74.93
2018-03-02T19:42:14.878Z,78.55
2018-03-02T19:44:41.351Z,82.45
2018-03-02T19:47:07.623Z,82.35
2018-03-02T19:49:34.539Z,82.78
2018-03-02T19:52:00.679Z,89.07
2018-03-02T19:54:26.996Z,79.00
2018-03-02T19:56:53.105Z,72.82
2018-03-02T19:59:19.932Z,75.10
2018-03-02T20:01:46.063Z,76.30
2018-03-02T20:04:12.191Z,77.05
2018-03-02T20:06:38.340Z,84.40
2018-03-02T20:09:04.500Z,92.32
2018-03-02T20:11:31.284Z,106.50
2018-03-02T20:13:57.439Z,101.15
2018-03-02T20:16:23.632Z,90.75
2018-03-02T20:18:49.731Z,88.43
2018-03-02T20:21:15.958Z,104.38
2018-03-02T20:23:42.091Z,101.22
2018-03-02T20:26:08.223Z,86.85
2018-03-02T20:28:34.325Z,81.95
2018-03-02T20:31:00.611Z,94.00
2018-03-02T20:33:26.791Z,80.85
2018-03-02T20:35:52.982Z,91.75
2018-03-02T20:38:19.096Z,80.90
2018-03-02T20:40:45.931Z,94.60
2018-03-02T20:43:12.111Z,116.62
2018-03-02T20:45:38.266Z,117.65
2018-03-02T20:48:04.425Z,104.68
2018-03-02T20:50:30.572Z,116.65
2018-03-02T20:52:56.738Z,98.43
2018-03-02T20:55:22.957Z,98.65
2018-03-02T20:57:49.184Z,96.40
2018-03-02T21:00:15.328Z,94.05
2018-03-02T21:02:42.282Z,106.78
2018-03-02T21:05:08.445Z,90.68
2018-03-02T21:07:34.575Z,87.57
2018-03-02T21:10:00.696Z,96.32
2018-03-02T21:12:26.806Z,71.15
2018-03-02T21:14:53.008Z,72.47
2018-03-02T21:17:19.214Z,71.32
2018-03-02T21:19:45.279Z,69.68
2018-03-02T21:22:11.400Z,71.68
2018-03-02T21:24:37.496Z,69.20
2018-03-02T21:27:03.615Z,70.53
2018-03-02T21:29:30.500Z,72.70
2018-03-02T21:31:56.658Z,59.13
2018-03-02T21:34:23.699Z,62.50
2018-03-02T21:36:49.675Z,61.97
2018-03-02T21:39:15.817Z,69.97
2018-03-02T21:41:41.941Z,71.18
2018-03-02T21:44:08.044Z,61.97
2018-03-02T21:46:34.211Z,61.25
2018-03-02T21:49:00.286Z,78.25
2018-03-02T21:51:26.377Z,71.68
2018-03-02T21:53:52.480Z,74.47
2018-03-02T21:56:19.307Z,72.53
2018-03-02T21:58:45.450Z,77.18
2018-03-02T22:01:11.534Z,66.05
2018-03-02T22:03:37.704Z,71.45
2018-03-02T22:06:03.900Z,72.57
2018-03-02T22:08:29.999Z,80.53
2018-03-02T22:10:56.091Z,79.05
2018-03-02T22:13:22.250Z,81.82
2018-03-02T22:15:48.323Z,79.68
2018-03-02T22:18:14.403Z,89.30
2018-03-02T22:20:40.511Z,103.53
2018-03-02T22:23:07.344Z,82.97
2018-03-02T22:25:33.563Z,92.78
2018-03-02T22:27:59.652Z,110.50
2018-03-02T22:30:26.502Z,99.07
2018-03-02T22:32:53.360Z,97.32
2018-03-02T22:35:20.228Z,101.93
2018-03-02T22:37:46.303Z,105.57
2018-03-02T22:40:12.407Z,96.57
2018-03-02T22:42:38.518Z,113.97
2018-03-02T22:45:04.638Z,105.05
2018-03-02T22:47:30.731Z,106.43
2018-03-02T22:49:56.805Z,106.93
2018-03-02T22:52:22.903Z,123.62
2018-03-02T22:54:49.032Z,126.38
2018-03-02T22:57:15.136Z,139.43
2018-03-02T22:59:41.274Z,132.12
2018-03-02T23:02:07.392Z,121.15
2018-03-02T23:04:33.474Z,121.13
2018-03-02T23:07:00.347Z,106.25
2018-03-02T23:09:26.407Z,104.35
2018-03-02T23:11:52.479Z,114.35
2018-03-02T23:14:18.596Z,107.10
2018-03-02T23:16:44.692Z,122.00
2018-03-02T23:19:10.772Z,107.20
2018-03-02T23:21:37.623Z,122.87
2018-03-02T23:24:03.735Z,112.35
2018-03-02T23:26:29.871Z,110.88
2018-03-02T23:28:56.142Z,128.77
2018-03-02T23:31:22.083Z,104.05
2018-03-02T23:33:48.143Z,94.60
2018-03-02T23:36:14.227Z,110.35
2018-03-02T23:38:40.323Z,105.05
2018-03-02T23:41:06.395Z,102.25
2018-03-02T23:43:32.496Z,112.95
2018-03-02T23:45:58.584Z,104.28
2018-03-02T23:48:24.691Z,110.25
2018-03-02T23:50:51.490Z,114.28
2018-03-02T23:53:17.592Z,115.90
2018-03-02T23:55:43.731Z,130.20
2018-03-02T23:58:09.798Z,133.90
